createdAt,value
2024-01-12T00:00:48.225Z,10.83
2024-01-12T00:01:50.710Z,10.93
2024-01-12T00:02:52.405Z,10.95
2024-01-12T00:03:54.005Z,10.13
2024-01-12T00:04:55.587Z,12.13
2024-01-12T00:05:57.466Z,9.73
2024-01-12T00:06:59.128Z,10.00
2024-01-12T00:08:00.762Z,8.77
2024-01-12T00:09:02.454Z,9.88
2024-01-12T00:11:10.000Z,10.07
2024-01-12T00:12:11.587Z,10.18
2024-01-12T00:13:13.130Z,10.63
2024-01-12T00:14:14.767Z,11.50
2024-01-12T00:15:16.534Z,11.55
2024-01-12T00:16:20.732Z,11.75
2024-01-12T00:17:22.404Z,10.88
2024-01-12T00:18:24.305Z,10.70
2024-01-12T00:19:25.992Z,9.30
2024-01-12T00:20:27.573Z,10.88
2024-01-12T00:21:29.174Z,11.67
2024-01-12T00:22:30.708Z,10.50
2024-01-12T00:23:32.361Z,11.98
2024-01-12T00:25:35.750Z,11.00
2024-01-12T00:26:37.354Z,11.07
2024-01-12T00:27:38.906Z,10.75
2024-01-12T00:28:40.492Z,9.95
2024-01-12T00:29:42.457Z,12.00
2024-01-12T00:30:44.129Z,11.88
2024-01-12T00:31:45.691Z,10.37
2024-01-12T00:32:47.295Z,11.52
2024-01-12T00:33:49.049Z,10.50
2024-01-12T00:34:50.752Z,9.05
2024-01-12T00:35:52.368Z,11.70
2024-01-12T00:36:53.958Z,11.00
2024-01-12T00:37:55.512Z,10.55
2024-01-12T00:38:57.197Z,10.60
2024-01-12T00:39:58.830Z,12.05
2024-01-12T00:41:00.348Z,11.02
2024-01-12T00:42:02.100Z,11.87
2024-01-12T00:43:03.753Z,12.15
2024-01-12T00:44:05.439Z,10.52
2024-01-12T00:45:07.344Z,10.68
2024-01-12T00:46:08.867Z,11.07
2024-01-12T00:47:10.439Z,12.25
2024-01-12T00:48:12.119Z,10.98
2024-01-12T00:49:14.006Z,10.43
2024-01-12T00:50:15.709Z,11.63
2024-01-12T00:52:20.397Z,11.60
2024-01-12T00:53:22.026Z,10.48
2024-01-12T00:54:23.640Z,11.35
2024-01-12T00:55:25.182Z,13.35
2024-01-12T00:56:26.885Z,12.10
2024-01-12T00:57:28.928Z,11.18
2024-01-12T00:58:30.541Z,10.75
2024-01-12T00:59:32.186Z,10.35
2024-01-12T01:00:33.802Z,10.82
2024-01-12T01:01:35.669Z,10.13
2024-01-12T01:02:37.388Z,9.67
2024-01-12T01:03:39.101Z,8.63
2024-01-12T01:04:40.760Z,10.05
2024-01-12T01:05:42.388Z,8.82
2024-01-12T01:06:44.043Z,9.63
2024-01-12T01:07:45.592Z,9.18
2024-01-12T01:08:47.277Z,10.65
2024-01-12T01:10:50.896Z,10.63
2024-01-12T01:11:52.855Z,10.45
2024-01-12T01:12:54.425Z,10.00
2024-01-12T01:13:56.010Z,10.80
2024-01-12T01:14:57.611Z,11.10
2024-01-12T01:15:59.297Z,9.80
2024-01-12T01:17:00.860Z,10.65
2024-01-12T01:18:02.551Z,10.40
2024-01-12T01:19:04.423Z,12.05
2024-01-12T01:20:06.923Z,12.27
2024-01-12T01:21:08.526Z,13.00
2024-01-12T01:22:10.153Z,11.30
2024-01-12T01:23:11.765Z,12.40
2024-01-12T01:24:13.398Z,12.20
2024-01-12T01:25:14.990Z,10.77
2024-01-12T01:26:16.592Z,11.43
2024-01-12T01:27:18.443Z,9.23
2024-01-12T01:29:22.020Z,9.82
2024-01-12T01:30:23.835Z,10.43
2024-01-12T01:31:25.495Z,8.60
2024-01-12T01:32:27.128Z,9.02
2024-01-12T01:33:28.897Z,10.03
2024-01-12T01:34:30.660Z,10.88
2024-01-12T01:35:32.603Z,9.85
2024-01-12T01:36:34.193Z,10.07
2024-01-12T01:37:35.750Z,8.00
2024-01-12T01:38:37.412Z,10.55
2024-01-12T01:39:39.007Z,9.60
2024-01-12T01:40:40.637Z,9.48
2024-01-12T01:41:42.329Z,9.63
2024-01-12T01:42:46.817Z,10.20
2024-01-12T01:43:48.367Z,9.97
2024-01-12T01:44:50.024Z,9.70
2024-01-12T01:45:51.624Z,9.13
2024-01-12T01:47:57.152Z,10.00
2024-01-12T01:48:58.912Z,9.50
2024-01-12T01:51:03.942Z,9.10
2024-01-12T01:53:07.949Z,9.57
2024-01-12T01:54:09.805Z,9.97
2024-01-12T01:55:12.845Z,10.32
2024-01-12T01:56:15.114Z,10.82
2024-01-12T01:57:16.976Z,10.77
2024-01-12T01:58:18.686Z,10.32
2024-01-12T01:59:20.333Z,10.45
2024-01-12T02:00:22.279Z,9.95
2024-01-12T02:01:24.181Z,11.30
2024-01-12T02:02:26.012Z,10.60
2024-01-12T02:03:29.457Z,10.10
2024-01-12T02:04:31.413Z,10.00
2024-01-12T02:05:35.319Z,9.48
2024-01-12T02:06:37.367Z,7.85
2024-01-12T02:07:39.021Z,8.18
2024-01-12T02:08:40.732Z,9.48
2024-01-12T02:09:42.556Z,9.00
2024-01-12T02:11:46.040Z,8.40
2024-01-12T02:12:47.666Z,9.00
2024-01-12T02:13:49.261Z,17.73
2024-01-12T02:14:50.935Z,39.93
2024-01-12T02:15:52.729Z,22.65
2024-01-12T02:16:54.371Z,13.50
2024-01-12T02:18:24.055Z,13.73
2024-01-12T02:19:25.768Z,10.13
2024-01-12T02:20:27.443Z,10.05
2024-01-12T02:21:29.591Z,9.55
2024-01-12T02:22:31.249Z,10.48
2024-01-12T02:23:32.807Z,10.05
2024-01-12T02:24:34.390Z,10.77
2024-01-12T02:25:35.975Z,9.77
2024-01-12T02:26:37.704Z,10.13
2024-01-12T02:27:39.564Z,9.65
2024-01-12T02:28:41.506Z,9.75
2024-01-12T02:29:43.505Z,10.63
2024-01-12T02:30:45.432Z,10.25
2024-01-12T02:31:47.834Z,8.95
2024-01-12T02:32:49.515Z,9.70
2024-01-12T02:34:53.086Z,9.88
2024-01-12T02:35:54.780Z,9.30
2024-01-12T02:36:56.447Z,8.63
2024-01-12T02:38:59.784Z,9.35
2024-01-12T02:40:01.404Z,10.45
2024-01-12T02:41:02.963Z,9.38
2024-01-12T02:42:04.725Z,9.73
2024-01-12T02:44:09.064Z,8.48
2024-01-12T02:45:10.762Z,8.77
2024-01-12T02:46:12.342Z,10.60
2024-01-12T02:47:14.094Z,8.45
2024-01-12T02:49:17.705Z,9.38
2024-01-12T02:50:19.367Z,11.43
2024-01-12T02:51:20.963Z,9.80
2024-01-12T02:53:24.539Z,8.10
2024-01-12T02:54:26.130Z,8.65
2024-01-12T02:55:27.681Z,9.07
2024-01-12T02:56:29.808Z,9.23
2024-01-12T02:57:31.875Z,8.40
2024-01-12T02:58:33.595Z,8.45
2024-01-12T02:59:35.232Z,8.90
2024-01-12T03:00:36.844Z,8.93
2024-01-12T03:01:38.501Z,9.15
2024-01-12T03:02:40.182Z,9.88
2024-01-12T03:04:43.727Z,9.18
2024-01-12T03:05:45.409Z,8.50
2024-01-12T03:07:48.834Z,9.32
2024-01-12T03:08:50.442Z,8.88
2024-01-12T03:10:53.849Z,9.00
2024-01-12T03:55:19.718Z,8.95
2024-01-12T03:56:21.371Z,8.98
2024-01-12T03:57:23.083Z,9.32
2024-01-12T03:58:24.632Z,10.52
2024-01-12T03:59:26.233Z,8.75
2024-01-12T04:00:27.875Z,9.48
2024-01-12T04:01:29.432Z,8.98
2024-01-12T04:02:31.273Z,9.60
2024-01-12T04:03:32.846Z,10.90
2024-01-12T04:04:34.384Z,10.68
2024-01-12T04:05:36.154Z,9.80
2024-01-12T04:06:38.129Z,10.25
2024-01-12T04:07:39.781Z,9.75
2024-01-12T04:08:41.431Z,10.32
2024-01-12T04:09:42.988Z,10.38
2024-01-12T04:10:44.716Z,10.23
2024-01-12T04:11:46.358Z,8.93
2024-01-12T04:12:48.002Z,10.40
2024-01-12T04:13:49.575Z,10.80
2024-01-12T04:14:51.193Z,9.55
2024-01-12T04:15:52.831Z,10.35
2024-01-12T04:16:54.383Z,10.45
2024-01-12T04:17:56.030Z,10.68
2024-01-12T04:18:57.768Z,10.52
2024-01-12T04:19:59.714Z,9.85
2024-01-12T04:21:01.366Z,9.15
2024-01-12T04:22:03.099Z,10.38
2024-01-12T04:24:15.280Z,8.23
2024-01-12T04:25:16.941Z,9.48
2024-01-12T04:26:18.674Z,9.68
2024-01-12T04:27:20.334Z,9.82
2024-01-12T04:28:21.971Z,9.13
2024-01-12T04:29:23.545Z,9.45
2024-01-12T04:30:25.174Z,9.90
2024-01-12T04:31:26.853Z,9.52
2024-01-12T04:32:28.463Z,10.02
2024-01-12T04:33:30.836Z,8.88
2024-01-12T04:34:32.630Z,8.10
2024-01-12T04:35:34.237Z,9.10
2024-01-12T04:36:35.960Z,7.68
2024-01-12T04:37:37.519Z,8.95
2024-01-12T04:38:39.128Z,8.75
2024-01-12T04:39:43.520Z,9.10
2024-01-12T04:40:45.184Z,9.70
2024-01-12T04:41:46.785Z,7.93
2024-01-12T04:42:48.362Z,8.57
2024-01-12T04:43:49.902Z,7.95
2024-01-12T04:44:51.502Z,8.97
2024-01-12T04:45:53.148Z,8.38
2024-01-12T04:46:54.793Z,9.13
2024-01-12T04:47:57.001Z,8.02
2024-01-12T04:48:58.703Z,9.45
2024-01-12T04:50:00.609Z,8.52
2024-01-12T04:51:02.364Z,9.13
2024-01-12T04:52:05.167Z,8.73
2024-01-12T04:53:07.075Z,8.63
2024-01-12T04:54:08.838Z,9.18
2024-01-12T04:55:10.426Z,8.83
2024-01-12T04:56:11.963Z,9.63
2024-01-12T04:57:13.571Z,8.48
2024-01-12T04:58:15.075Z,8.98
2024-01-12T04:59:16.664Z,8.68
2024-01-12T05:00:19.258Z,9.80
2024-01-12T05:01:20.915Z,11.98
2024-01-12T05:02:22.695Z,12.52
2024-01-12T05:03:24.606Z,10.05
2024-01-12T05:04:26.320Z,9.48
2024-01-12T05:05:28.062Z,11.57
2024-01-12T05:06:29.846Z,9.45
2024-01-12T05:07:31.687Z,11.60
2024-01-12T05:08:33.279Z,10.25
2024-01-12T05:09:34.903Z,9.40
2024-01-12T05:10:36.441Z,11.38
2024-01-12T05:11:38.068Z,12.57
2024-01-12T05:12:39.729Z,9.65
2024-01-12T05:13:41.552Z,9.75
2024-01-12T05:14:43.890Z,8.90
2024-01-12T05:15:47.331Z,9.73
2024-01-12T05:16:48.883Z,9.15
2024-01-12T05:17:50.611Z,10.50
2024-01-12T05:18:52.384Z,8.88
2024-01-12T05:19:54.130Z,11.38
2024-01-12T05:20:55.768Z,9.70
2024-01-12T05:22:59.202Z,9.93
2024-01-12T05:24:00.820Z,8.07
2024-01-12T05:25:03.209Z,8.45
2024-01-12T05:26:04.797Z,7.57
2024-01-12T05:27:06.661Z,9.82
2024-01-12T05:28:09.719Z,9.18
2024-01-12T05:29:11.298Z,9.80
2024-01-12T05:30:13.408Z,9.90
2024-01-12T05:31:16.005Z,6.97
2024-01-12T05:32:17.674Z,8.55
2024-01-12T05:33:19.394Z,7.28
2024-01-12T05:34:21.208Z,7.40
2024-01-12T05:35:22.837Z,6.97
2024-01-12T05:36:24.466Z,7.80
2024-01-12T05:37:26.049Z,8.68
2024-01-12T05:38:27.798Z,8.73
2024-01-12T05:39:29.343Z,8.93
2024-01-12T05:40:30.965Z,7.95
2024-01-12T05:41:33.091Z,9.65
2024-01-12T05:42:35.144Z,8.85
2024-01-12T05:43:37.537Z,9.82
2024-01-12T05:44:39.309Z,7.55
2024-01-12T05:45:41.091Z,8.13
2024-01-12T05:47:45.056Z,10.70
2024-01-12T05:48:47.542Z,9.10
2024-01-12T05:49:49.554Z,10.52
2024-01-12T05:50:51.515Z,9.00
2024-01-12T05:52:55.489Z,9.93
2024-01-12T05:53:57.756Z,11.20
2024-01-12T05:54:59.484Z,10.13
2024-01-12T05:56:01.260Z,12.10
2024-01-12T05:57:03.201Z,9.43
2024-01-12T05:58:05.124Z,8.95
2024-01-12T05:59:07.056Z,9.32
2024-01-12T06:00:09.691Z,9.63
2024-01-12T06:01:13.216Z,9.18
2024-01-12T06:02:15.153Z,8.18
2024-01-12T06:03:17.126Z,8.63
2024-01-12T06:04:18.823Z,8.82
2024-01-12T06:05:20.537Z,8.52
2024-01-12T06:06:22.230Z,7.75
2024-01-12T06:07:23.991Z,8.30
2024-01-12T06:08:25.765Z,7.50
2024-01-12T06:09:27.370Z,6.03
2024-01-12T06:10:28.916Z,7.22
2024-01-12T06:11:30.559Z,7.40
2024-01-12T06:13:33.937Z,9.32
2024-01-12T06:14:35.586Z,10.60
2024-01-12T06:15:37.411Z,8.30
2024-01-12T06:16:38.929Z,5.38
2024-01-12T06:17:40.693Z,7.30
2024-01-12T06:18:42.535Z,7.00
2024-01-12T06:19:44.305Z,7.93
2024-01-12T06:20:45.873Z,9.63
2024-01-12T06:21:47.460Z,9.32
2024-01-12T06:22:49.022Z,9.40
2024-01-12T06:23:50.572Z,9.95
2024-01-12T06:24:52.179Z,9.40
2024-01-12T06:25:53.754Z,11.50
2024-01-12T06:26:55.353Z,9.07
2024-01-12T06:27:56.930Z,9.57
2024-01-12T06:28:58.490Z,10.95
2024-01-12T06:30:00.297Z,12.25
2024-01-12T06:31:02.062Z,10.55
2024-01-12T06:32:03.954Z,8.50
2024-01-12T06:33:06.048Z,9.52
2024-01-12T06:34:07.815Z,8.80
2024-01-12T06:35:10.230Z,8.73
2024-01-12T06:36:12.045Z,9.43
2024-01-12T06:37:13.787Z,10.10
2024-01-12T06:38:15.464Z,10.67
2024-01-12T06:39:17.338Z,10.82
2024-01-12T06:40:19.225Z,12.55
2024-01-12T06:41:21.000Z,10.90
2024-01-12T06:42:22.754Z,13.15
2024-01-12T06:43:24.424Z,12.30
2024-01-12T06:44:26.046Z,12.38
2024-01-12T06:45:27.943Z,10.35
2024-01-12T06:46:29.750Z,10.93
2024-01-12T06:47:31.556Z,10.35
2024-01-12T06:48:33.263Z,9.47
2024-01-12T06:49:35.297Z,8.77
2024-01-12T06:50:37.309Z,9.48
2024-01-12T06:51:39.032Z,8.60
2024-01-12T06:52:40.604Z,8.13
2024-01-12T06:53:42.223Z,7.40
2024-01-12T06:54:44.501Z,7.43
2024-01-12T06:55:46.452Z,7.15
2024-01-12T06:56:48.197Z,9.75
2024-01-12T06:57:49.738Z,8.60
2024-01-12T06:58:51.564Z,9.20
2024-01-12T06:59:53.307Z,7.38
2024-01-12T07:44:59.013Z,5.50
2024-01-12T07:46:00.832Z,6.57
2024-01-12T07:47:02.817Z,6.03
2024-01-12T07:48:05.049Z,7.13
2024-01-12T07:49:07.189Z,7.65
2024-01-12T07:50:09.302Z,5.80
2024-01-12T07:51:11.164Z,6.07
2024-01-12T07:52:17.085Z,9.85
2024-01-12T07:53:21.016Z,10.55
2024-01-12T07:54:22.852Z,9.07
2024-01-12T07:55:24.652Z,7.78
2024-01-12T07:56:26.470Z,9.23
2024-01-12T07:57:28.228Z,9.23
2024-01-12T07:58:32.936Z,9.07
2024-01-12T07:59:35.082Z,8.85
2024-01-12T08:00:36.958Z,8.43
2024-01-12T08:01:38.752Z,8.65
2024-01-12T08:02:40.534Z,7.50
2024-01-12T08:03:42.711Z,7.80
2024-01-12T08:04:44.484Z,6.82
2024-01-12T08:05:46.307Z,6.43
2024-01-12T08:06:48.477Z,8.20
2024-01-12T08:07:50.749Z,8.32
2024-01-12T08:08:52.555Z,8.85
2024-01-12T08:09:54.265Z,8.77
2024-01-12T08:10:56.109Z,8.05
2024-01-12T08:11:57.795Z,9.45
2024-01-12T08:12:59.627Z,9.63
2024-01-12T08:14:01.361Z,9.18
2024-01-12T08:15:03.317Z,7.97
2024-01-12T08:16:05.324Z,8.77
2024-01-12T08:17:07.904Z,6.43
2024-01-12T08:18:09.755Z,7.90
2024-01-12T08:19:11.693Z,8.18
2024-01-12T08:20:13.660Z,8.07
2024-01-12T08:21:15.648Z,8.32
2024-01-12T08:22:17.409Z,9.05
2024-01-12T08:23:19.256Z,9.75
2024-01-12T08:24:21.065Z,9.02
2024-01-12T08:25:22.902Z,9.30
2024-01-12T08:26:24.785Z,9.75
2024-01-12T08:27:26.606Z,8.23
2024-01-12T08:28:28.288Z,8.32
2024-01-12T08:29:30.152Z,9.25
2024-01-12T08:30:32.003Z,8.85
2024-01-12T09:15:36.746Z,6.80
2024-01-12T09:16:38.726Z,8.25
2024-01-12T09:17:40.646Z,7.28
2024-01-12T09:18:45.467Z,9.32
2024-01-12T09:19:47.336Z,9.27
2024-01-12T09:20:49.240Z,8.88
2024-01-12T09:21:51.033Z,8.93
2024-01-12T09:22:52.874Z,9.00
2024-01-12T09:23:54.711Z,9.85
2024-01-12T09:24:56.481Z,8.80
2024-01-12T09:25:58.213Z,9.68
2024-01-12T09:27:00.122Z,10.00
2024-01-12T09:28:01.922Z,10.30
2024-01-12T09:29:03.625Z,9.93
2024-01-12T09:30:05.820Z,8.45
2024-01-12T09:31:07.940Z,9.02
2024-01-12T09:32:09.999Z,10.75
2024-01-12T09:33:11.862Z,10.25
2024-01-12T09:34:13.976Z,10.93
2024-01-12T09:35:16.584Z,10.63
2024-01-12T09:36:18.540Z,8.90
2024-01-12T09:37:20.347Z,11.07
2024-01-12T09:38:22.142Z,8.30
2024-01-12T09:39:25.306Z,9.82
2024-01-12T09:40:27.705Z,9.70
2024-01-12T09:41:37.466Z,9.88
2024-01-12T09:42:42.673Z,9.80
2024-01-12T10:27:38.046Z,9.90
2024-01-12T10:28:39.791Z,9.52
2024-01-12T10:29:41.581Z,9.75
2024-01-12T10:30:43.434Z,9.73
2024-01-12T10:31:46.382Z,9.38
2024-01-12T10:32:51.828Z,11.00
2024-01-12T10:33:54.191Z,10.15
2024-01-12T10:34:56.118Z,10.27
2024-01-12T12:01:51.390Z,9.48
2024-01-12T12:02:56.874Z,9.45
2024-01-12T12:47:55.238Z,9.25
2024-01-12T12:48:57.150Z,8.93
2024-01-12T12:49:59.254Z,9.52
2024-01-12T12:51:01.011Z,12.90
2024-01-12T12:52:02.821Z,10.68
2024-01-12T12:53:04.792Z,8.43
2024-01-12T12:54:06.633Z,11.20
2024-01-12T12:55:09.031Z,10.18
2024-01-12T12:56:10.806Z,12.25
2024-01-12T12:57:12.766Z,11.07
2024-01-12T12:58:15.060Z,8.93
2024-01-12T12:59:16.751Z,11.27
2024-01-12T13:00:18.558Z,11.20
2024-01-12T13:01:20.296Z,12.63
2024-01-12T13:02:22.130Z,10.60
2024-01-12T13:03:24.061Z,11.87
2024-01-12T13:04:25.907Z,12.02
2024-01-12T13:05:27.820Z,11.85
2024-01-12T13:06:29.686Z,12.73
2024-01-12T13:07:31.544Z,13.43
2024-01-12T13:08:33.364Z,13.15
2024-01-12T13:09:35.063Z,13.93
2024-01-12T13:10:36.992Z,12.70
2024-01-12T13:11:38.822Z,12.68
2024-01-12T13:12:40.718Z,11.65
2024-01-12T13:13:42.551Z,13.03
2024-01-12T13:14:44.270Z,12.68
2024-01-12T13:15:46.042Z,12.70
2024-01-12T13:16:47.849Z,14.00
2024-01-12T13:17:49.715Z,15.63
2024-01-12T14:02:53.121Z,10.13
2024-01-12T14:03:55.043Z,7.63
2024-01-12T14:05:05.619Z,12.05
2024-01-12T14:06:16.564Z,12.10
2024-01-12T14:07:18.713Z,10.73
2024-01-12T14:09:22.984Z,10.75
2024-01-12T14:10:25.057Z,12.45
2024-01-12T14:11:27.774Z,12.03
2024-01-12T14:12:29.588Z,12.52
2024-01-12T14:13:31.509Z,12.57
2024-01-12T14:14:33.402Z,13.80
2024-01-12T14:15:35.204Z,13.95
2024-01-12T14:16:37.088Z,14.00
2024-01-12T14:17:39.034Z,13.25
2024-01-12T14:18:41.177Z,11.98
2024-01-12T14:19:43.118Z,12.43
2024-01-12T14:20:45.052Z,15.05
2024-01-12T14:21:46.950Z,12.27
2024-01-12T14:22:48.739Z,14.02
2024-01-12T14:23:50.591Z,12.35
2024-01-12T14:24:52.501Z,13.07
2024-01-12T14:25:54.335Z,12.00
2024-01-12T14:26:56.317Z,12.60
2024-01-12T14:27:58.330Z,12.85
2024-01-12T14:29:00.142Z,19.23
2024-01-12T14:30:02.124Z,12.88
2024-01-12T14:31:04.427Z,12.98
2024-01-12T14:32:06.250Z,13.00
2024-01-12T14:33:08.582Z,11.90
2024-01-12T14:34:10.655Z,14.55
2024-01-12T14:35:12.723Z,13.15
2024-01-12T14:36:15.074Z,14.90
2024-01-12T14:37:16.968Z,12.32
2024-01-12T14:38:18.763Z,14.30
2024-01-12T14:39:20.666Z,14.50
2024-01-12T14:40:22.472Z,13.27
2024-01-12T14:41:24.487Z,13.57
2024-01-12T14:42:26.283Z,13.17
2024-01-12T14:43:28.084Z,13.35
2024-01-12T14:44:29.932Z,13.90
2024-01-12T14:45:31.761Z,12.75
2024-01-12T14:46:34.188Z,14.57
2024-01-12T14:47:37.227Z,13.13
2024-01-12T14:48:39.524Z,13.73
2024-01-12T14:49:42.066Z,13.35
2024-01-12T14:50:45.905Z,15.25
2024-01-12T14:51:47.674Z,14.18
2024-01-12T14:52:49.608Z,13.60
2024-01-12T14:53:51.388Z,13.10
2024-01-12T14:54:53.319Z,14.63
2024-01-12T14:55:55.146Z,17.17
2024-01-12T14:56:57.418Z,14.48
2024-01-12T14:57:59.185Z,13.10
2024-01-12T14:59:01.032Z,14.63
2024-01-12T15:00:06.178Z,16.15
2024-01-12T15:01:09.263Z,15.07
2024-01-12T15:02:11.333Z,15.02
2024-01-12T15:03:13.198Z,15.03
2024-01-12T15:04:19.203Z,12.90
2024-01-12T15:05:21.776Z,12.50
2024-01-12T15:06:23.708Z,13.85
2024-01-12T15:07:28.172Z,14.63
2024-01-12T15:08:30.744Z,14.40
2024-01-12T15:09:32.577Z,13.02
2024-01-12T15:10:34.699Z,12.70
2024-01-12T15:11:36.497Z,14.32
2024-01-12T15:12:38.751Z,13.07
2024-01-12T15:13:40.750Z,13.77
2024-01-12T15:14:42.861Z,13.30
2024-01-12T15:15:44.859Z,14.13
2024-01-12T15:16:48.196Z,15.73
2024-01-12T15:17:50.060Z,15.05
2024-01-12T15:18:52.050Z,13.82
2024-01-12T15:19:53.790Z,14.45
2024-01-12T15:20:55.907Z,13.90
2024-01-12T15:21:57.614Z,13.38
2024-01-12T15:23:05.205Z,12.68
2024-01-12T15:24:09.156Z,14.53
2024-01-12T15:25:11.014Z,13.68
2024-01-12T16:09:57.955Z,11.48
2024-01-12T16:10:59.513Z,12.87
2024-01-12T16:12:01.099Z,11.85
2024-01-12T16:13:02.967Z,12.75
2024-01-12T16:14:04.729Z,12.50
2024-01-12T16:15:06.718Z,12.07
2024-01-12T16:16:08.555Z,13.30
2024-01-12T16:17:10.272Z,12.55
2024-01-12T16:18:11.988Z,14.30
2024-01-12T16:19:15.760Z,15.63
2024-01-12T16:20:18.055Z,14.00
2024-01-12T16:21:33.939Z,14.93
2024-01-12T16:22:35.828Z,12.57
2024-01-12T16:23:39.433Z,13.68
2024-01-12T16:24:41.088Z,13.43
2024-01-12T16:25:42.661Z,13.13
2024-01-12T16:26:44.301Z,14.52
2024-01-12T16:27:46.168Z,15.90
2024-01-12T16:28:47.926Z,13.25
2024-01-12T16:29:49.554Z,16.20
2024-01-12T16:30:51.652Z,15.05
2024-01-12T16:31:53.541Z,16.73
2024-01-12T16:32:55.181Z,15.57
2024-01-12T16:33:57.118Z,15.60
2024-01-12T16:34:58.699Z,15.25
2024-01-12T16:36:00.418Z,13.30
2024-01-12T16:37:02.023Z,14.50
2024-01-12T16:38:03.575Z,15.85
2024-01-12T16:39:05.372Z,14.63
2024-01-12T16:40:07.398Z,16.67
2024-01-12T16:41:09.249Z,15.52
2024-01-12T16:42:11.295Z,15.17
2024-01-12T16:43:13.084Z,15.50
2024-01-12T16:44:15.026Z,16.40
2024-01-12T16:45:16.817Z,15.65
2024-01-12T16:46:18.698Z,13.95
2024-01-12T16:47:20.551Z,13.35
2024-01-12T16:48:22.475Z,13.00
2024-01-12T16:49:24.377Z,15.73
2024-01-12T16:50:26.260Z,14.85
2024-01-12T16:51:28.150Z,14.52
2024-01-12T16:52:29.957Z,15.13
2024-01-12T16:53:31.789Z,14.23
2024-01-12T16:54:33.613Z,13.63
2024-01-12T16:55:35.524Z,15.50
2024-01-12T16:56:40.750Z,13.88
2024-01-12T16:57:42.637Z,14.70
2024-01-12T16:58:44.442Z,15.73
2024-01-12T16:59:46.393Z,14.10
2024-01-12T17:00:48.263Z,14.68
2024-01-12T17:01:50.156Z,14.02
2024-01-12T17:02:51.865Z,13.83
2024-01-12T17:03:53.793Z,14.65
2024-01-12T17:04:55.687Z,12.90
2024-01-12T17:05:57.625Z,15.98
2024-01-12T17:06:59.584Z,15.88
2024-01-12T17:08:01.422Z,14.80
2024-01-12T17:09:03.191Z,14.18
2024-01-12T17:10:05.189Z,13.65
2024-01-12T17:11:07.282Z,14.75
2024-01-12T17:12:09.242Z,14.27
2024-01-12T17:13:11.064Z,13.80
2024-01-12T17:14:12.645Z,15.40
2024-01-12T17:15:17.458Z,15.23
2024-01-12T17:16:19.152Z,14.80
2024-01-12T17:17:26.330Z,12.93
2024-01-12T17:18:33.303Z,16.33
2024-01-12T17:19:35.542Z,14.50
2024-01-12T17:20:37.346Z,13.57
2024-01-12T17:21:39.165Z,14.70
2024-01-12T17:22:40.886Z,14.57
2024-01-12T17:23:42.478Z,15.13
2024-01-12T17:24:44.054Z,14.65
2024-01-12T17:25:45.627Z,14.43
2024-01-12T17:26:47.387Z,14.35
2024-01-12T17:27:49.248Z,17.40
2024-01-12T17:28:51.081Z,14.95
2024-01-12T17:29:52.836Z,16.42
2024-01-12T17:30:54.629Z,18.50
2024-01-12T17:31:56.510Z,16.98
2024-01-12T17:32:58.454Z,16.45
2024-01-12T17:34:00.519Z,15.63
2024-01-12T17:35:02.507Z,15.07
2024-01-12T17:36:04.491Z,14.88
2024-01-12T17:37:06.608Z,26.30
2024-01-12T17:38:08.393Z,34.38
2024-01-12T17:39:10.429Z,37.38
2024-01-12T17:40:12.571Z,52.15
2024-01-12T17:41:14.367Z,34.95
2024-01-12T17:42:16.116Z,30.73
2024-01-12T17:43:18.006Z,28.45
2024-01-12T17:44:19.848Z,24.63
2024-01-12T17:45:22.614Z,24.50
2024-01-12T17:46:25.283Z,25.92
2024-01-12T17:47:27.095Z,23.45
2024-01-12T17:48:29.219Z,22.77
2024-01-12T17:49:31.622Z,23.02
2024-01-12T17:50:35.522Z,20.13
2024-01-12T17:51:39.726Z,20.77
2024-01-12T17:52:41.461Z,20.52
2024-01-12T17:53:43.566Z,18.35
2024-01-12T17:54:45.433Z,19.10
2024-01-12T17:55:47.186Z,21.17
2024-01-12T17:56:49.533Z,18.23
2024-01-12T17:57:51.462Z,20.90
2024-01-12T17:58:53.303Z,20.30
2024-01-12T17:59:54.950Z,20.50
2024-01-12T18:00:56.709Z,19.98
2024-01-12T18:01:58.627Z,18.77
2024-01-12T18:03:00.648Z,21.17
2024-01-12T18:04:02.560Z,20.88
2024-01-12T18:05:04.489Z,20.73
2024-01-12T18:06:06.479Z,20.20
2024-01-12T18:07:08.431Z,20.50
2024-01-12T18:08:10.225Z,20.73
2024-01-12T18:09:11.869Z,20.85
2024-01-12T18:10:13.766Z,20.63
2024-01-12T18:11:20.170Z,20.92
2024-01-12T18:12:21.732Z,20.83
2024-01-12T18:13:23.465Z,18.33
2024-01-12T18:14:25.317Z,19.30
2024-01-12T18:15:27.133Z,16.80
2024-01-12T18:16:28.851Z,17.55
2024-01-12T18:17:30.699Z,17.63
2024-01-12T18:18:32.772Z,16.00
2024-01-12T18:19:34.821Z,17.33
2024-01-12T18:20:36.636Z,17.73
2024-01-12T18:22:40.260Z,17.80
2024-01-12T18:23:42.096Z,16.73
2024-01-12T18:24:43.993Z,15.95
2024-01-12T18:25:45.820Z,16.40
2024-01-12T18:26:47.620Z,17.20
2024-01-12T18:27:49.187Z,17.08
2024-01-12T18:28:50.953Z,18.52
2024-01-12T18:29:52.650Z,19.83
2024-01-12T18:30:54.282Z,19.42
2024-01-12T18:31:56.042Z,18.90
2024-01-12T18:32:58.055Z,20.50
2024-01-12T18:34:00.064Z,18.10
2024-01-12T18:35:01.963Z,18.83
2024-01-12T18:36:03.906Z,17.60
2024-01-12T18:37:05.613Z,17.40
2024-01-12T18:38:07.157Z,18.05
2024-01-12T18:39:09.056Z,17.08
2024-01-12T18:40:11.168Z,19.48
2024-01-12T18:41:12.920Z,16.85
2024-01-12T18:42:14.478Z,16.42
2024-01-12T18:43:16.038Z,16.98
2024-01-12T18:44:17.849Z,16.77
2024-01-12T18:45:19.869Z,16.45
2024-01-12T18:46:21.611Z,18.47
2024-01-12T18:47:23.562Z,15.60
2024-01-12T18:48:25.533Z,16.52
2024-01-12T18:49:27.242Z,17.80
2024-01-12T18:50:29.168Z,17.65
2024-01-12T18:51:31.012Z,16.05
2024-01-12T18:52:32.859Z,17.25
2024-01-12T18:53:34.765Z,14.48
2024-01-12T18:54:36.600Z,15.00
2024-01-12T18:55:38.229Z,14.82
2024-01-12T18:56:40.032Z,13.47
2024-01-12T18:57:41.865Z,15.73
2024-01-12T18:58:43.384Z,14.85
2024-01-12T18:59:45.056Z,15.10
2024-01-12T19:00:46.748Z,12.95
2024-01-12T19:01:48.345Z,15.55
2024-01-12T19:02:49.879Z,14.57
2024-01-12T19:03:51.499Z,16.50
2024-01-12T19:04:53.099Z,13.43
2024-01-12T19:05:54.976Z,12.35
2024-01-12T19:06:56.626Z,14.97
2024-01-12T19:07:58.166Z,16.13
2024-01-12T19:08:59.790Z,13.70
2024-01-12T19:10:01.385Z,14.07
2024-01-12T19:11:02.980Z,14.02
2024-01-12T19:12:04.669Z,13.93
2024-01-12T19:13:06.270Z,14.85
2024-01-12T19:14:07.825Z,14.82
2024-01-12T19:15:09.716Z,16.70
2024-01-12T19:16:11.435Z,14.45
2024-01-12T19:17:12.966Z,14.77
2024-01-12T19:18:14.710Z,15.50
2024-01-12T19:19:17.012Z,15.18
2024-01-12T19:20:18.782Z,16.40
2024-01-12T19:21:20.547Z,15.00
2024-01-12T19:22:22.072Z,15.75
2024-01-12T19:23:23.635Z,15.35
2024-01-12T19:24:25.432Z,15.43
2024-01-12T19:25:27.022Z,15.05
2024-01-12T19:26:28.647Z,14.55
2024-01-12T19:27:30.233Z,16.70
2024-01-12T19:28:31.847Z,15.65
2024-01-12T19:29:33.398Z,16.67
2024-01-12T19:30:35.256Z,15.55
2024-01-12T19:31:36.891Z,17.80
2024-01-12T19:32:38.618Z,17.60
2024-01-12T19:33:40.478Z,17.52
2024-01-12T19:34:42.567Z,16.38
2024-01-12T19:35:46.680Z,17.52
2024-01-12T19:36:48.856Z,17.25
2024-01-12T19:37:50.493Z,18.27
2024-01-12T19:38:52.202Z,20.77
2024-01-12T19:39:54.003Z,26.42
2024-01-12T19:40:55.548Z,26.63
2024-01-12T21:07:56.306Z,15.63
2024-01-12T21:08:58.852Z,14.73
2024-01-12T21:10:00.819Z,15.20
2024-01-12T21:11:02.626Z,18.13
2024-01-12T21:12:04.614Z,17.48
2024-01-12T21:13:06.583Z,15.50
2024-01-12T21:14:08.328Z,19.08
2024-01-12T21:15:10.442Z,18.40
2024-01-12T21:16:12.373Z,15.30
2024-01-12T21:17:14.134Z,15.27
2024-01-12T21:18:16.092Z,16.20
2024-01-12T21:19:18.278Z,14.25
2024-01-12T21:20:20.235Z,15.45
2024-01-12T21:21:22.101Z,15.87
2024-01-12T21:22:30.010Z,13.77
2024-01-12T21:23:38.418Z,14.90
2024-01-12T21:24:40.229Z,13.43
2024-01-12T21:25:42.005Z,14.35
2024-01-12T21:26:43.875Z,13.60
2024-01-12T21:27:45.686Z,14.77
2024-01-12T21:28:47.506Z,12.85
2024-01-12T21:29:49.239Z,14.43
2024-01-12T21:30:50.844Z,13.70
2024-01-12T21:31:52.522Z,14.70
2024-01-12T21:32:54.257Z,13.52
2024-01-12T21:33:56.347Z,12.15
2024-01-12T21:34:58.321Z,13.57
2024-01-12T21:36:00.035Z,12.18
2024-01-12T21:37:01.849Z,12.38
2024-01-12T21:38:03.670Z,13.30
2024-01-12T21:39:05.522Z,13.82
2024-01-12T21:40:07.494Z,12.73
2024-01-12T21:41:09.344Z,12.77
2024-01-12T21:42:11.254Z,13.97
2024-01-12T21:43:13.252Z,15.05
2024-01-12T21:44:15.052Z,16.35
2024-01-12T21:45:17.012Z,14.77
2024-01-12T21:46:18.913Z,13.88
2024-01-12T21:47:20.760Z,13.88
2024-01-12T21:48:22.663Z,14.45
2024-01-12T21:49:24.780Z,12.93
2024-01-12T21:50:26.699Z,12.40
2024-01-12T21:51:28.601Z,11.65
2024-01-12T21:52:30.471Z,13.73